sensor_id;sensor_type;location;lat;lon;timestamp;pressure;altitude;pressure_sealevel;temperature;humidity
13027;BME280;6580;42.680;23.324;2023-03-31T00:01:51;95241.91;;;10.03;65.93
13027;BME280;6580;42.680;23.324;2023-03-31T00:04:38;95239.22;;;10.03;67.00
13027;BME280;6580;42.680;23.324;2023-03-31T00:07:28;95236.50;;;9.95;68.30
13027;BME280;6580;42.680;23.324;2023-03-31T00:10:18;95224.44;;;10.01;68.47
13027;BME280;6580;42.680;23.324;2023-03-31T00:13:05;95224.31;;;10.27;67.28
13027;BME280;6580;42.680;23.324;2023-03-31T00:15:55;95225.00;;;10.12;67.97
13027;BME280;6580;42.680;23.324;2023-03-31T00:18:40;95227.53;;;9.96;69.77
13027;BME280;6580;42.680;23.324;2023-03-31T00:21:30;95229.81;;;9.91;70.20
13027;BME280;6580;42.680;23.324;2023-03-31T00:24:19;95231.63;;;10.08;69.96
13027;BME280;6580;42.680;23.324;2023-03-31T00:27:05;95221.59;;;10.02;68.59
13027;BME280;6580;42.680;23.324;2023-03-31T00:29:52;95221.00;;;10.08;68.75
13027;BME280;6580;42.680;23.324;2023-03-31T00:32:39;95222.72;;;10.17;68.71
13027;BME280;6580;42.680;23.324;2023-03-31T00:35:25;95218.44;;;10.24;68.19
13027;BME280;6580;42.680;23.324;2023-03-31T00:38:10;95228.44;;;9.87;68.65
13027;BME280;6580;42.680;23.324;2023-03-31T00:40:58;95202.66;;;10.05;68.67
13027;BME280;6580;42.680;23.324;2023-03-31T00:44:00;95210.81;;;10.04;70.17
13027;BME280;6580;42.680;23.324;2023-03-31T00:46:52;95214.69;;;10.09;70.34
13027;BME280;6580;42.680;23.324;2023-03-31T00:49:41;95212.97;;;10.00;70.31
13027;BME280;6580;42.680;23.324;2023-03-31T00:52:31;95198.34;;;10.04;70.89
13027;BME280;6580;42.680;23.324;2023-03-31T00:55:23;95191.50;;;10.27;69.00
13027;BME280;6580;42.680;23.324;2023-03-31T00:58:11;95195.56;;;10.39;68.23
13027;BME280;6580;42.680;23.324;2023-03-31T01:01:01;95194.59;;;10.40;68.68
13027;BME280;6580;42.680;23.324;2023-03-31T01:03:49;95170.22;;;10.27;68.98
13027;BME280;6580;42.680;23.324;2023-03-31T01:06:37;95188.06;;;10.34;67.72
13027;BME280;6580;42.680;23.324;2023-03-31T01:09:30;95167.88;;;10.24;68.11
13027;BME280;6580;42.680;23.324;2023-03-31T01:12:18;95179.56;;;10.31;69.99
13027;BME280;6580;42.680;23.324;2023-03-31T01:15:07;95178.69;;;10.56;69.28
13027;BME280;6580;42.680;23.324;2023-03-31T01:17:53;95187.44;;;10.74;67.99
13027;BME280;6580;42.680;23.324;2023-03-31T01:20:56;95186.47;;;10.83;67.48
13027;BME280;6580;42.680;23.324;2023-03-31T01:24:17;95187.13;;;10.77;66.27
13027;BME280;6580;42.680;23.324;2023-03-31T01:34:15;95195.13;;;10.43;69.58
13027;BME280;6580;42.680;23.324;2023-03-31T01:37:35;95194.59;;;10.73;69.38
13027;BME280;6580;42.680;23.324;2023-03-31T01:40:46;95201.47;;;10.84;67.78
13027;BME280;6580;42.680;23.324;2023-03-31T01:43:38;95209.34;;;11.01;65.27
13027;BME280;6580;42.680;23.324;2023-03-31T01:46:31;95208.53;;;11.01;64.06
13027;BME280;6580;42.680;23.324;2023-03-31T01:49:25;95207.50;;;10.86;63.87
13027;BME280;6580;42.680;23.324;2023-03-31T01:52:19;95219.41;;;10.74;64.51
13027;BME280;6580;42.680;23.324;2023-03-31T01:55:17;95213.81;;;10.85;64.66
13027;BME280;6580;42.680;23.324;2023-03-31T01:58:18;95223.03;;;10.98;63.72
13027;BME280;6580;42.680;23.324;2023-03-31T02:01:10;95235.78;;;10.87;63.81
13027;BME280;6580;42.680;23.324;2023-03-31T02:04:02;95222.31;;;10.88;64.55
13027;BME280;6580;42.680;23.324;2023-03-31T02:06:54;95211.53;;;10.98;62.48
13027;BME280;6580;42.680;23.324;2023-03-31T02:09:43;95225.84;;;10.97;62.03
13027;BME280;6580;42.680;23.324;2023-03-31T02:12:32;95219.56;;;11.06;62.95
13027;BME280;6580;42.680;23.324;2023-03-31T02:15:22;95221.88;;;11.01;62.65
13027;BME280;6580;42.680;23.324;2023-03-31T02:18:13;95251.13;;;10.93;63.29
13027;BME280;6580;42.680;23.324;2023-03-31T02:21:01;95237.34;;;10.97;65.65
13027;BME280;6580;42.680;23.324;2023-03-31T02:23:50;95244.97;;;10.92;68.70
13027;BME280;6580;42.680;23.324;2023-03-31T02:26:39;95261.06;;;10.83;70.18
13027;BME280;6580;42.680;23.324;2023-03-31T02:29:29;95259.41;;;10.82;75.78
13027;BME280;6580;42.680;23.324;2023-03-31T02:32:21;95246.59;;;10.52;75.90
13027;BME280;6580;42.680;23.324;2023-03-31T02:35:12;95257.81;;;10.63;79.25
13027;BME280;6580;42.680;23.324;2023-03-31T02:37:59;95272.94;;;10.63;87.71
13027;BME280;6580;42.680;23.324;2023-03-31T02:40:45;95269.81;;;10.67;89.62
13027;BME280;6580;42.680;23.324;2023-03-31T02:43:30;95260.78;;;10.35;89.36
13027;BME280;6580;42.680;23.324;2023-03-31T02:46:16;95267.25;;;10.58;99.04
13027;BME280;6580;42.680;23.324;2023-03-31T02:49:04;95267.03;;;10.51;100.00
13027;BME280;6580;42.680;23.324;2023-03-31T02:52:14;95261.59;;;10.61;100.00
13027;BME280;6580;42.680;23.324;2023-03-31T02:55:15;95247.38;;;10.78;98.99
13027;BME280;6580;42.680;23.324;2023-03-31T02:58:29;95225.78;;;10.81;100.00
13027;BME280;6580;42.680;23.324;2023-03-31T03:01:26;95234.31;;;10.92;100.00
13027;BME280;6580;42.680;23.324;2023-03-31T03:04:32;95225.22;;;11.03;98.20
13027;BME280;6580;42.680;23.324;2023-03-31T03:07:23;95213.31;;;10.89;100.00
13027;BME280;6580;42.680;23.324;2023-03-31T03:10:14;95218.50;;;10.91;100.00
13027;BME280;6580;42.680;23.324;2023-03-31T03:13:07;95214.03;;;10.99;100.00
13027;BME280;6580;42.680;23.324;2023-03-31T03:15:57;95205.31;;;10.89;100.00
13027;BME280;6580;42.680;23.324;2023-03-31T03:18:54;95196.84;;;10.94;100.00
13027;BME280;6580;42.680;23.324;2023-03-31T03:21:45;95195.47;;;10.82;100.00
13027;BME280;6580;42.680;23.324;2023-03-31T03:24:30;95201.09;;;10.71;100.00
13027;BME280;6580;42.680;23.324;2023-03-31T03:27:17;95198.81;;;10.84;100.00
13027;BME280;6580;42.680;23.324;2023-03-31T03:30:07;95188.03;;;10.60;100.00
13027;BME280;6580;42.680;23.324;2023-03-31T03:32:53;95188.63;;;10.46;100.00
13027;BME280;6580;42.680;23.324;2023-03-31T03:35:42;95193.91;;;10.38;100.00
13027;BME280;6580;42.680;23.324;2023-03-31T03:38:31;95187.59;;;10.39;100.00
13027;BME280;6580;42.680;23.324;2023-03-31T03:41:17;95186.03;;;10.28;100.00
13027;BME280;6580;42.680;23.324;2023-03-31T03:44:02;95191.88;;;10.32;100.00
13027;BME280;6580;42.680;23.324;2023-03-31T03:46:49;95184.31;;;10.19;100.00
13027;BME280;6580;42.680;23.324;2023-03-31T03:49:34;95184.53;;;10.26;100.00
13027;BME280;6580;42.680;23.324;2023-03-31T03:52:22;95160.75;;;10.24;100.00
13027;BME280;6580;42.680;23.324;2023-03-31T03:55:09;95183.72;;;10.33;100.00
13027;BME280;6580;42.680;23.324;2023-03-31T03:57:56;95180.97;;;10.43;100.00
13027;BME280;6580;42.680;23.324;2023-03-31T04:00:42;95181.03;;;10.51;100.00
13027;BME280;6580;42.680;23.324;2023-03-31T04:03:30;95190.72;;;10.34;100.00
13027;BME280;6580;42.680;23.324;2023-03-31T04:06:18;95194.38;;;10.33;100.00
13027;BME280;6580;42.680;23.324;2023-03-31T04:09:04;95189.09;;;10.67;100.00
13027;BME280;6580;42.680;23.324;2023-03-31T04:11:52;95194.13;;;10.78;100.00
13027;BME280;6580;42.680;23.324;2023-03-31T04:14:37;95197.97;;;10.83;100.00
13027;BME280;6580;42.680;23.324;2023-03-31T04:17:23;95204.50;;;10.89;100.00
13027;BME280;6580;42.680;23.324;2023-03-31T04:20:16;95202.47;;;10.83;100.00
13027;BME280;6580;42.680;23.324;2023-03-31T04:23:02;95174.72;;;10.60;100.00
13027;BME280;6580;42.680;23.324;2023-03-31T04:25:53;95196.81;;;10.86;100.00
13027;BME280;6580;42.680;23.324;2023-03-31T04:28:40;95199.44;;;10.78;100.00
13027;BME280;6580;42.680;23.324;2023-03-31T04:31:30;95199.06;;;10.65;100.00
13027;BME280;6580;42.680;23.324;2023-03-31T04:34:16;95198.06;;;10.66;100.00
13027;BME280;6580;42.680;23.324;2023-03-31T04:37:05;95198.44;;;10.71;100.00
13027;BME280;6580;42.680;23.324;2023-03-31T04:39:53;95181.16;;;10.83;100.00
13027;BME280;6580;42.680;23.324;2023-03-31T04:42:40;95170.81;;;10.80;100.00
13027;BME280;6580;42.680;23.324;2023-03-31T04:45:31;95185.84;;;10.89;100.00
13027;BME280;6580;42.680;23.324;2023-03-31T04:48:20;95186.53;;;10.91;100.00
13027;BME280;6580;42.680;23.324;2023-03-31T04:51:06;95184.97;;;10.47;100.00
13027;BME280;6580;42.680;23.324;2023-03-31T04:53:53;95185.38;;;10.60;100.00
13027;BME280;6580;42.680;23.324;2023-03-31T04:56:53;95176.56;;;10.59;100.00
13027;BME280;6580;42.680;23.324;2023-03-31T04:59:38;95160.03;;;10.81;100.00
13027;BME280;6580;42.680;23.324;2023-03-31T05:02:25;95171.25;;;10.67;100.00
13027;BME280;6580;42.680;23.324;2023-03-31T05:05:13;95174.22;;;10.98;100.00
13027;BME280;6580;42.680;23.324;2023-03-31T05:07:59;95169.78;;;11.22;100.00
13027;BME280;6580;42.680;23.324;2023-03-31T05:10:46;95150.31;;;11.21;100.00
13027;BME280;6580;42.680;23.324;2023-03-31T05:13:32;95153.78;;;11.14;100.00
13027;BME280;6580;42.680;23.324;2023-03-31T05:16:18;95152.91;;;10.98;99.90
13027;BME280;6580;42.680;23.324;2023-03-31T05:19:11;95153.91;;;10.97;100.00
13027;BME280;6580;42.680;23.324;2023-03-31T05:22:06;95146.47;;;11.16;98.36
13027;BME280;6580;42.680;23.324;2023-03-31T05:24:54;95148.00;;;11.26;97.81
13027;BME280;6580;42.680;23.324;2023-03-31T05:27:59;95140.31;;;11.47;94.63
13027;BME280;6580;42.680;23.324;2023-03-31T05:30:54;95142.34;;;11.37;97.97
13027;BME280;6580;42.680;23.324;2023-03-31T05:34:16;95134.00;;;11.48;99.19
13027;BME280;6580;42.680;23.324;2023-03-31T05:37:21;95126.47;;;11.12;100.00
13027;BME280;6580;42.680;23.324;2023-03-31T05:40:19;95135.97;;;11.22;100.00
13027;BME280;6580;42.680;23.324;2023-03-31T05:43:05;95144.78;;;11.15;100.00
13027;BME280;6580;42.680;23.324;2023-03-31T05:45:53;95140.84;;;11.51;100.00
13027;BME280;6580;42.680;23.324;2023-03-31T05:48:44;95132.88;;;11.67;100.00
13027;BME280;6580;42.680;23.324;2023-03-31T05:51:31;95143.56;;;11.83;97.83
13027;BME280;6580;42.680;23.324;2023-03-31T05:54:16;95144.38;;;11.75;95.04
13027;BME280;6580;42.680;23.324;2023-03-31T05:57:02;95142.69;;;12.14;93.49
13027;BME280;6580;42.680;23.324;2023-03-31T05:59:47;95142.81;;;12.36;90.32
13027;BME280;6580;42.680;23.324;2023-03-31T06:02:33;95147.69;;;12.09;89.44
13027;BME280;6580;42.680;23.324;2023-03-31T06:05:18;95135.84;;;12.19;90.97
13027;BME280;6580;42.680;23.324;2023-03-31T06:08:07;95146.63;;;12.50;85.96
13027;BME280;6580;42.680;23.324;2023-03-31T06:10:52;95154.78;;;12.48;87.40
13027;BME280;6580;42.680;23.324;2023-03-31T06:13:39;95152.09;;;12.56;86.62
13027;BME280;6580;42.680;23.324;2023-03-31T06:16:24;95150.59;;;12.62;85.21
13027;BME280;6580;42.680;23.324;2023-03-31T06:19:12;95150.00;;;12.36;88.46
13027;BME280;6580;42.680;23.324;2023-03-31T06:21:57;95149.25;;;12.58;87.79
13027;BME280;6580;42.680;23.324;2023-03-31T06:24:46;95128.53;;;12.68;84.33
13027;BME280;6580;42.680;23.324;2023-03-31T06:27:32;95146.75;;;12.56;86.57
13027;BME280;6580;42.680;23.324;2023-03-31T06:30:18;95121.38;;;13.29;79.84
13027;BME280;6580;42.680;23.324;2023-03-31T06:33:04;95130.34;;;14.03;76.06
13027;BME280;6580;42.680;23.324;2023-03-31T06:35:50;95134.34;;;14.58;71.19
13027;BME280;6580;42.680;23.324;2023-03-31T06:38:36;95139.16;;;14.63;71.52
13027;BME280;6580;42.680;23.324;2023-03-31T06:41:23;95129.47;;;14.76;66.45
13027;BME280;6580;42.680;23.324;2023-03-31T06:44:09;95120.91;;;15.02;66.30
13027;BME280;6580;42.680;23.324;2023-03-31T06:46:55;95115.13;;;14.55;67.94
13027;BME280;6580;42.680;23.324;2023-03-31T06:49:40;95132.44;;;15.45;62.79
13027;BME280;6580;42.680;23.324;2023-03-31T06:52:26;95137.88;;;15.52;61.27
13027;BME280;6580;42.680;23.324;2023-03-31T06:55:12;95135.88;;;15.39;61.44
13027;BME280;6580;42.680;23.324;2023-03-31T06:58:00;95125.88;;;15.33;60.01
13027;BME280;6580;42.680;23.324;2023-03-31T07:00:46;95127.69;;;15.47;55.32
13027;BME280;6580;42.680;23.324;2023-03-31T07:03:32;95116.09;;;15.61;52.78
13027;BME280;6580;42.680;23.324;2023-03-31T07:06:18;95108.84;;;15.62;52.15
13027;BME280;6580;42.680;23.324;2023-03-31T07:09:05;95099.56;;;16.06;50.76
13027;BME280;6580;42.680;23.324;2023-03-31T07:11:50;95083.31;;;16.14;49.83
13027;BME280;6580;42.680;23.324;2023-03-31T07:14:51;95067.28;;;16.54;47.03
13027;BME280;6580;42.680;23.324;2023-03-31T07:17:37;95063.59;;;17.55;46.41
13027;BME280;6580;42.680;23.324;2023-03-31T07:20:25;95056.91;;;19.13;42.33
13027;BME280;6580;42.680;23.324;2023-03-31T07:23:10;95041.16;;;20.34;39.54
13027;BME280;6580;42.680;23.324;2023-03-31T07:25:56;95042.81;;;20.35;38.78
13027;BME280;6580;42.680;23.324;2023-03-31T07:28:45;95044.16;;;20.68;38.62
13027;BME280;6580;42.680;23.324;2023-03-31T07:31:32;95036.66;;;20.70;38.79
13027;BME280;6580;42.680;23.324;2023-03-31T07:34:18;95054.34;;;20.48;39.73
13027;BME280;6580;42.680;23.324;2023-03-31T07:37:04;95058.09;;;19.98;39.08
13027;BME280;6580;42.680;23.324;2023-03-31T07:39:50;95063.16;;;20.44;38.99
13027;BME280;6580;42.680;23.324;2023-03-31T07:42:35;95036.16;;;21.33;36.31
13027;BME280;6580;42.680;23.324;2023-03-31T07:45:23;95032.22;;;21.65;35.79
13027;BME280;6580;42.680;23.324;2023-03-31T07:48:12;95046.63;;;21.12;36.47
13027;BME280;6580;42.680;23.324;2023-03-31T07:50:58;95039.69;;;20.80;36.76
13027;BME280;6580;42.680;23.324;2023-03-31T07:53:45;95029.47;;;22.58;33.83
13027;BME280;6580;42.680;23.324;2023-03-31T07:56:32;95039.28;;;22.93;33.72
13027;BME280;6580;42.680;23.324;2023-03-31T07:59:18;95040.81;;;23.24;32.93
13027;BME280;6580;42.680;23.324;2023-03-31T08:02:09;95034.69;;;22.82;32.48
13027;BME280;6580;42.680;23.324;2023-03-31T08:04:58;95028.66;;;22.35;32.88
13027;BME280;6580;42.680;23.324;2023-03-31T08:07:45;95028.84;;;21.34;35.22
13027;BME280;6580;42.680;23.324;2023-03-31T08:10:31;95014.50;;;22.56;33.18
13027;BME280;6580;42.680;23.324;2023-03-31T08:13:17;95011.56;;;21.17;35.11
13027;BME280;6580;42.680;23.324;2023-03-31T08:16:03;95021.06;;;20.90;35.88
13027;BME280;6580;42.680;23.324;2023-03-31T08:18:48;95023.03;;;20.58;35.95
13027;BME280;6580;42.680;23.324;2023-03-31T08:21:35;95022.56;;;20.44;36.24
13027;BME280;6580;42.680;23.324;2023-03-31T08:24:21;95018.59;;;19.97;37.02
13027;BME280;6580;42.680;23.324;2023-03-31T08:27:06;95021.03;;;21.26;34.69
13027;BME280;6580;42.680;23.324;2023-03-31T08:29:51;95020.91;;;22.20;33.47
13027;BME280;6580;42.680;23.324;2023-03-31T08:32:37;95003.81;;;23.23;31.51
13027;BME280;6580;42.680;23.324;2023-03-31T08:35:22;95010.09;;;23.12;31.51
13027;BME280;6580;42.680;23.324;2023-03-31T08:38:09;94993.50;;;21.58;33.71
13027;BME280;6580;42.680;23.324;2023-03-31T08:40:58;94997.81;;;23.09;31.84
13027;BME280;6580;42.680;23.324;2023-03-31T08:43:45;94997.91;;;23.26;31.61
13027;BME280;6580;42.680;23.324;2023-03-31T08:46:34;95004.69;;;22.89;32.47
13027;BME280;6580;42.680;23.324;2023-03-31T08:49:21;95010.09;;;23.12;31.11
13027;BME280;6580;42.680;23.324;2023-03-31T08:52:11;95004.34;;;24.03;30.24
13027;BME280;6580;42.680;23.324;2023-03-31T08:55:02;95007.88;;;22.63;31.88
13027;BME280;6580;42.680;23.324;2023-03-31T08:57:54;95008.09;;;20.74;34.29
13027;BME280;6580;42.680;23.324;2023-03-31T09:00:49;94999.56;;;20.10;35.16
13027;BME280;6580;42.680;23.324;2023-03-31T09:03:44;94987.09;;;19.47;36.62
13027;BME280;6580;42.680;23.324;2023-03-31T09:06:36;94962.59;;;19.49;36.25
13027;BME280;6580;42.680;23.324;2023-03-31T09:09:32;94984.63;;;20.50;35.13
13027;BME280;6580;42.680;23.324;2023-03-31T09:12:29;94975.81;;;21.85;33.29
13027;BME280;6580;42.680;23.324;2023-03-31T09:15:25;94952.56;;;23.70;30.54
13027;BME280;6580;42.680;23.324;2023-03-31T09:18:16;94944.75;;;24.89;29.11
13027;BME280;6580;42.680;23.324;2023-03-31T09:21:06;94954.81;;;24.88;29.03
13027;BME280;6580;42.680;23.324;2023-03-31T09:23:59;94953.94;;;23.57;30.14
13027;BME280;6580;42.680;23.324;2023-03-31T09:26:50;94965.50;;;24.57;29.12
13027;BME280;6580;42.680;23.324;2023-03-31T09:29:41;94954.94;;;23.67;29.26
13027;BME280;6580;42.680;23.324;2023-03-31T09:32:30;94958.00;;;24.31;28.89
13027;BME280;6580;42.680;23.324;2023-03-31T09:35:18;94968.66;;;23.72;29.74
13027;BME280;6580;42.680;23.324;2023-03-31T09:38:04;94958.91;;;23.60;29.90
13027;BME280;6580;42.680;23.324;2023-03-31T09:40:50;94967.56;;;23.06;30.33
13027;BME280;6580;42.680;23.324;2023-03-31T09:43:35;94962.38;;;23.71;30.09
13027;BME280;6580;42.680;23.324;2023-03-31T09:46:28;94950.00;;;23.64;29.65
13027;BME280;6580;42.680;23.324;2023-03-31T09:49:17;94937.44;;;25.32;27.55
13027;BME280;6580;42.680;23.324;2023-03-31T09:52:10;94936.03;;;26.04;27.31
13027;BME280;6580;42.680;23.324;2023-03-31T09:54:59;94927.31;;;26.07;26.74
13027;BME280;6580;42.680;23.324;2023-03-31T09:57:46;94929.00;;;27.27;25.55
13027;BME280;6580;42.680;23.324;2023-03-31T10:00:32;94929.72;;;25.98;26.89
13027;BME280;6580;42.680;23.324;2023-03-31T10:03:19;94924.16;;;26.97;25.40
13027;BME280;6580;42.680;23.324;2023-03-31T10:06:09;94908.88;;;27.01;25.19
13027;BME280;6580;42.680;23.324;2023-03-31T10:08:56;94922.28;;;25.20;27.47
13027;BME280;6580;42.680;23.324;2023-03-31T10:12:01;94918.69;;;25.88;26.69
13027;BME280;6580;42.680;23.324;2023-03-31T10:14:49;94917.72;;;24.66;27.73
13027;BME280;6580;42.680;23.324;2023-03-31T10:17:41;94917.78;;;23.28;29.05
13027;BME280;6580;42.680;23.324;2023-03-31T10:20:36;94910.66;;;23.11;29.84
13027;BME280;6580;42.680;23.324;2023-03-31T10:23:26;94901.75;;;23.87;28.66
13027;BME280;6580;42.680;23.324;2023-03-31T10:26:15;94900.22;;;24.08;28.60
13027;BME280;6580;42.680;23.324;2023-03-31T10:29:09;94901.34;;;24.12;28.90
13027;BME280;6580;42.680;23.324;2023-03-31T10:32:02;94894.81;;;24.13;28.97
13027;BME280;6580;42.680;23.324;2023-03-31T10:34:49;94898.81;;;23.05;30.26
13027;BME280;6580;42.680;23.324;2023-03-31T10:37:36;94890.84;;;22.87;30.18
13027;BME280;6580;42.680;23.324;2023-03-31T10:40:24;94867.63;;;22.68;31.02
13027;BME280;6580;42.680;23.324;2023-03-31T10:43:14;94887.41;;;22.18;31.43
13027;BME280;6580;42.680;23.324;2023-03-31T10:46:02;94884.91;;;22.28;31.44
13027;BME280;6580;42.680;23.324;2023-03-31T10:48:50;94877.50;;;22.35;31.63
13027;BME280;6580;42.680;23.324;2023-03-31T10:51:35;94885.28;;;22.43;31.97
13027;BME280;6580;42.680;23.324;2023-03-31T10:54:22;94888.59;;;21.99;33.09
13027;BME280;6580;42.680;23.324;2023-03-31T10:57:07;94882.19;;;22.05;32.94
13027;BME280;6580;42.680;23.324;2023-03-31T11:00:03;94886.94;;;21.98;33.43
13027;BME280;6580;42.680;23.324;2023-03-31T11:03:31;94888.09;;;22.25;33.05
13027;BME280;6580;42.680;23.324;2023-03-31T11:06:26;94883.47;;;21.68;33.85
13027;BME280;6580;42.680;23.324;2023-03-31T11:09:30;94875.47;;;21.85;32.66
13027;BME280;6580;42.680;23.324;2023-03-31T11:12:22;94868.25;;;21.67;32.86
13027;BME280;6580;42.680;23.324;2023-03-31T11:15:17;94855.59;;;21.50;33.16
13027;BME280;6580;42.680;23.324;2023-03-31T11:18:17;94830.72;;;21.42;32.33
13027;BME280;6580;42.680;23.324;2023-03-31T11:21:16;94856.00;;;22.22;32.11
13027;BME280;6580;42.680;23.324;2023-03-31T11:24:08;94840.06;;;22.49;31.19
13027;BME280;6580;42.680;23.324;2023-03-31T11:27:07;94843.38;;;22.90;30.49
13027;BME280;6580;42.680;23.324;2023-03-31T11:30:09;94829.56;;;22.80;30.95
13027;BME280;6580;42.680;23.324;2023-03-31T11:33:14;94823.41;;;22.84;31.03
13027;BME280;6580;42.680;23.324;2023-03-31T11:36:15;94832.34;;;22.57;31.33
13027;BME280;6580;42.680;23.324;2023-03-31T11:39:16;94826.78;;;22.01;32.15
13027;BME280;6580;42.680;23.324;2023-03-31T11:42:11;94825.94;;;21.55;33.11
13027;BME280;6580;42.680;23.324;2023-03-31T11:45:02;94830.09;;;21.17;33.35
13027;BME280;6580;42.680;23.324;2023-03-31T11:47:52;94820.66;;;21.71;33.05
13027;BME280;6580;42.680;23.324;2023-03-31T11:50:42;94821.94;;;21.57;32.84
13027;BME280;6580;42.680;23.324;2023-03-31T11:53:31;94819.41;;;20.45;34.78
13027;BME280;6580;42.680;23.324;2023-03-31T11:56:18;94817.19;;;21.01;34.04
13027;BME280;6580;42.680;23.324;2023-03-31T11:59:09;94806.88;;;21.09;34.01
13027;BME280;6580;42.680;23.324;2023-03-31T12:02:03;94802.47;;;20.97;33.94
13027;BME280;6580;42.680;23.324;2023-03-31T12:04:55;94793.94;;;21.23;33.65
13027;BME280;6580;42.680;23.324;2023-03-31T12:07:46;94788.94;;;20.97;33.97
13027;BME280;6580;42.680;23.324;2023-03-31T12:10:36;94789.44;;;21.17;33.45
13027;BME280;6580;42.680;23.324;2023-03-31T12:13:43;94786.13;;;21.90;32.48
13027;BME280;6580;42.680;23.324;2023-03-31T12:16:37;94765.94;;;22.76;31.75
13027;BME280;6580;42.680;23.324;2023-03-31T12:19:46;94771.19;;;23.55;30.42
13027;BME280;6580;42.680;23.324;2023-03-31T12:22:49;94759.91;;;23.63;30.09
13027;BME280;6580;42.680;23.324;2023-03-31T12:25:54;94774.25;;;22.69;31.48
13027;BME280;6580;42.680;23.324;2023-03-31T12:29:04;94773.50;;;21.95;32.32
13027;BME280;6580;42.680;23.324;2023-03-31T12:35:42;94761.84;;;20.56;34.82
13027;BME280;6580;42.680;23.324;2023-03-31T12:38:56;94759.81;;;21.45;33.34
13027;BME280;6580;42.680;23.324;2023-03-31T12:42:03;94749.94;;;23.35;30.82
13027;BME280;6580;42.680;23.324;2023-03-31T12:45:00;94749.59;;;23.81;30.00
13027;BME280;6580;42.680;23.324;2023-03-31T12:47:57;94752.03;;;23.00;30.16
13027;BME280;6580;42.680;23.324;2023-03-31T12:50:59;94735.50;;;22.46;31.45
13027;BME280;6580;42.680;23.324;2023-03-31T12:54:04;94726.69;;;23.61;30.21
13027;BME280;6580;42.680;23.324;2023-03-31T12:57:12;94712.34;;;24.24;29.32
13027;BME280;6580;42.680;23.324;2023-03-31T13:00:23;94714.72;;;24.59;29.08
13027;BME280;6580;42.680;23.324;2023-03-31T13:03:46;94698.09;;;23.96;29.35
13027;BME280;6580;42.680;23.324;2023-03-31T13:06:50;94692.06;;;23.72;30.15
13027;BME280;6580;42.680;23.324;2023-03-31T13:09:41;94687.16;;;23.20;30.25
13027;BME280;6580;42.680;23.324;2023-03-31T13:12:28;94690.00;;;22.81;31.51
13027;BME280;6580;42.680;23.324;2023-03-31T13:15:18;94687.34;;;23.14;30.66
13027;BME280;6580;42.680;23.324;2023-03-31T13:18:05;94668.59;;;22.12;31.92
13027;BME280;6580;42.680;23.324;2023-03-31T13:20:57;94653.25;;;21.90;32.21
13027;BME280;6580;42.680;23.324;2023-03-31T13:23:45;94650.19;;;21.75;33.04
13027;BME280;6580;42.680;23.324;2023-03-31T13:26:46;94638.38;;;21.92;32.72
13027;BME280;6580;42.680;23.324;2023-03-31T13:29:39;94632.53;;;21.49;33.22
13027;BME280;6580;42.680;23.324;2023-03-31T13:32:36;94613.94;;;21.53;33.24
13027;BME280;6580;42.680;23.324;2023-03-31T13:36:23;94610.34;;;21.13;33.98
13027;BME280;6580;42.680;23.324;2023-03-31T14:22:10;94564.31;;;20.56;35.02
13027;BME280;6580;42.680;23.324;2023-03-31T14:25:06;94564.66;;;20.59;35.49
13027;BME280;6580;42.680;23.324;2023-03-31T14:28:03;94557.34;;;20.48;35.11
13027;BME280;6580;42.680;23.324;2023-03-31T14:31:05;94561.69;;;20.27;35.56
13027;BME280;6580;42.680;23.324;2023-03-31T14:34:17;94554.16;;;20.17;35.73
13027;BME280;6580;42.680;23.324;2023-03-31T14:37:11;94548.91;;;20.04;36.31
13027;BME280;6580;42.680;23.324;2023-03-31T14:40:01;94546.69;;;20.01;36.39
13027;BME280;6580;42.680;23.324;2023-03-31T14:42:47;94550.38;;;19.89;36.76
13027;BME280;6580;42.680;23.324;2023-03-31T14:45:33;94542.81;;;19.97;36.57
13027;BME280;6580;42.680;23.324;2023-03-31T14:48:20;94530.53;;;19.95;36.32
13027;BME280;6580;42.680;23.324;2023-03-31T14:51:08;94534.94;;;20.07;36.40
13027;BME280;6580;42.680;23.324;2023-03-31T14:54:03;94539.94;;;19.92;36.78
13027;BME280;6580;42.680;23.324;2023-03-31T14:56:50;94523.63;;;19.69;36.52
13027;BME280;6580;42.680;23.324;2023-03-31T14:59:38;94533.75;;;19.62;36.91
13027;BME280;6580;42.680;23.324;2023-03-31T15:02:30;94520.50;;;19.43;37.54
13027;BME280;6580;42.680;23.324;2023-03-31T15:05:24;94520.31;;;19.56;37.55
13027;BME280;6580;42.680;23.324;2023-03-31T15:08:13;94518.38;;;19.74;37.14
13027;BME280;6580;42.680;23.324;2023-03-31T15:11:05;94531.53;;;19.42;37.73
13027;BME280;6580;42.680;23.324;2023-03-31T15:13:52;94525.56;;;19.22;37.91
13027;BME280;6580;42.680;23.324;2023-03-31T15:16:40;94530.06;;;19.28;37.83
13027;BME280;6580;42.680;23.324;2023-03-31T15:19:28;94530.50;;;19.07;38.27
13027;BME280;6580;42.680;23.324;2023-03-31T15:22:14;94534.84;;;18.90;38.69
13027;BME280;6580;42.680;23.324;2023-03-31T15:25:01;94527.66;;;19.02;38.79
13027;BME280;6580;42.680;23.324;2023-03-31T15:27:49;94525.38;;;18.99;38.70
13027;BME280;6580;42.680;23.324;2023-03-31T15:30:38;94524.66;;;18.92;39.09
13027;BME280;6580;42.680;23.324;2023-03-31T15:33:27;94513.38;;;18.95;38.91
13027;BME280;6580;42.680;23.324;2023-03-31T15:36:15;94521.88;;;18.80;39.89
13027;BME280;6580;42.680;23.324;2023-03-31T15:39:01;94504.25;;;18.96;39.39
13027;BME280;6580;42.680;23.324;2023-03-31T15:41:47;94518.84;;;19.06;39.34
13027;BME280;6580;42.680;23.324;2023-03-31T15:44:43;94515.97;;;18.90;39.37
13027;BME280;6580;42.680;23.324;2023-03-31T15:47:37;94519.00;;;19.11;39.56
13027;BME280;6580;42.680;23.324;2023-03-31T15:50:32;94522.25;;;19.20;38.94
13027;BME280;6580;42.680;23.324;2023-03-31T15:53:25;94519.81;;;19.12;39.09
13027;BME280;6580;42.680;23.324;2023-03-31T15:56:24;94512.59;;;18.94;39.34
13027;BME280;6580;42.680;23.324;2023-03-31T15:59:21;94510.84;;;19.18;38.40